Bradfords Cross Roads, North Carolina
Current Conditions -  °F | °C
As of 11:55 PM on Wednesday 22 Oct 2014 (Local Time) from KSVH Reporting Station
Clear Clear  
Wind Chill: 48°   Ceiling: Unl
Heat Index: 48°   Visibility: 10mi
Dew Point: 38°   Wind: 3mph
Humidity: 70%   Direction: 320°NW
Pressure: 30.09"   Gusts: NA
Location:  35.8306°N, 80.9003°W
Report Text: KSVH 230355Z AUTO 32003KT 10SM CLR 09/04 A3009 RMK AO2 T00870035
Loading
Personal Weather Stations






























Interactive Weather Map
Tropical Storm Tracking
New forecast layout! Learn more

10-Day Weather Forecast

Advertisements
Track Severe Weather on mobile